createdAt,value
2023-03-10T00:01:17.169Z,21.20
2023-03-10T00:03:45.652Z,19.70
2023-03-10T00:06:15.865Z,25.30
2023-03-10T00:08:45.459Z,21.10
2023-03-10T00:11:13.722Z,23.30
2023-03-10T00:13:42.855Z,19.00
2023-03-10T00:16:22.297Z,19.50
2023-03-10T00:18:49.987Z,17.40
2023-03-10T00:21:19.961Z,15.60
2023-03-10T00:23:56.339Z,16.50
2023-03-10T00:26:26.900Z,13.10
2023-03-10T00:28:55.094Z,12.50
2023-03-10T00:31:25.091Z,14.10
2023-03-10T00:33:52.478Z,15.70
2023-03-10T00:36:28.065Z,12.80
2023-03-10T00:38:57.270Z,13.10
2023-03-10T00:41:32.933Z,14.50
2023-03-10T00:44:00.477Z,13.20
2023-03-10T00:46:29.349Z,13.30
2023-03-10T00:48:56.437Z,11.60
2023-03-10T00:51:23.668Z,10.40
2023-03-10T00:53:51.072Z,12.50
2023-03-10T00:56:23.902Z,12.80
2023-03-10T00:58:55.555Z,10.40
2023-03-10T01:01:32.090Z,12.80
2023-03-10T01:04:02.632Z,11.60
2023-03-10T01:06:31.477Z,13.90
2023-03-10T01:08:59.654Z,11.50
2023-03-10T01:11:35.026Z,14.70
2023-03-10T01:14:06.461Z,14.60
2023-03-10T01:16:34.078Z,11.90
2023-03-10T01:19:01.427Z,12.60
2023-03-10T01:21:31.799Z,13.00
2023-03-10T01:24:00.172Z,13.00
2023-03-10T01:26:27.993Z,13.90
2023-03-10T01:28:55.114Z,14.30
2023-03-10T01:31:22.630Z,15.80
2023-03-10T01:33:50.617Z,13.90
2023-03-10T01:36:20.595Z,16.20
2023-03-10T01:38:48.551Z,12.90
2023-03-10T01:41:16.876Z,13.40
2023-03-10T01:43:46.664Z,16.70
2023-03-10T01:46:32.899Z,17.10
2023-03-10T01:49:16.290Z,20.60
2023-03-10T01:51:48.387Z,15.70
2023-03-10T01:54:21.864Z,14.70
2023-03-10T01:56:51.893Z,15.00
2023-03-10T01:59:21.355Z,14.00
2023-03-10T02:01:51.568Z,23.10
2023-03-10T02:04:27.704Z,17.50
2023-03-10T02:06:57.612Z,17.20
2023-03-10T02:09:28.028Z,15.00
2023-03-10T02:11:57.422Z,16.50
2023-03-10T02:14:25.377Z,15.60
2023-03-10T02:16:52.669Z,14.70
2023-03-10T02:19:52.936Z,19.50
2023-03-10T02:22:20.826Z,25.20
2023-03-10T02:25:08.745Z,16.10
2023-03-10T02:27:39.290Z,19.40
2023-03-10T02:30:26.552Z,20.40
2023-03-10T02:33:01.208Z,21.90
2023-03-10T02:35:28.498Z,20.40
2023-03-10T02:37:59.219Z,32.70
2023-03-10T02:40:37.137Z,25.50
2023-03-10T02:43:21.439Z,22.80
2023-03-10T02:45:53.290Z,29.90
2023-03-10T02:48:28.061Z,39.90
2023-03-10T02:50:56.977Z,25.50
2023-03-10T02:53:27.533Z,34.80
2023-03-10T02:55:56.991Z,36.40
2023-03-10T02:58:26.119Z,29.70
2023-03-10T03:00:53.422Z,31.60
2023-03-10T03:03:21.951Z,28.20
2023-03-10T03:05:49.371Z,25.10
2023-03-10T03:08:19.884Z,23.50
2023-03-10T03:10:47.580Z,31.40
2023-03-10T03:13:15.122Z,30.20
2023-03-10T03:15:43.022Z,31.70
2023-03-10T03:18:12.964Z,28.30
2023-03-10T03:20:42.474Z,29.80
2023-03-10T03:23:13.099Z,28.10
2023-03-10T03:25:41.900Z,26.70
2023-03-10T03:28:11.560Z,26.50
2023-03-10T03:30:39.990Z,24.00
2023-03-10T03:33:08.105Z,26.40
2023-03-10T03:35:37.185Z,24.30
2023-03-10T03:38:06.089Z,28.10
2023-03-10T03:40:35.928Z,28.70
2023-03-10T03:43:04.577Z,25.00
2023-03-10T03:45:37.591Z,23.00
2023-03-10T03:48:04.928Z,20.00
2023-03-10T03:50:32.462Z,23.40
2023-03-10T03:53:03.823Z,25.30
2023-03-10T03:55:31.322Z,17.60
2023-03-10T03:58:00.239Z,17.00
2023-03-10T04:00:27.593Z,17.80
2023-03-10T04:03:01.254Z,16.30
2023-03-10T04:05:28.733Z,16.80
2023-03-10T04:07:57.216Z,17.00
2023-03-10T04:10:26.704Z,14.40
2023-03-10T04:12:56.638Z,15.70
2023-03-10T04:15:24.261Z,13.90
2023-03-10T04:17:52.797Z,16.60
2023-03-10T04:20:20.091Z,20.30
2023-03-10T04:22:51.377Z,15.90
2023-03-10T04:25:21.767Z,14.20
2023-03-10T04:27:49.885Z,14.60
2023-03-10T04:30:17.184Z,21.10
2023-03-10T04:32:49.064Z,15.50
2023-03-10T04:35:16.940Z,15.80
2023-03-10T04:37:46.398Z,17.10
2023-03-10T04:40:14.896Z,18.30
2023-03-10T04:42:42.454Z,14.80
2023-03-10T04:45:10.250Z,13.90
2023-03-10T04:47:38.589Z,17.00
2023-03-10T04:50:08.192Z,18.80
2023-03-10T04:52:35.579Z,11.80
2023-03-10T04:55:03.103Z,50.90
2023-03-10T04:57:32.151Z,35.00
2023-03-10T05:00:01.619Z,31.90
2023-03-10T05:02:35.673Z,35.50
2023-03-10T05:05:03.248Z,23.20
2023-03-10T05:07:30.648Z,13.00
2023-03-10T05:09:58.490Z,12.20
2023-03-10T05:12:27.455Z,11.90
2023-03-10T05:14:58.236Z,11.60
2023-03-10T05:17:27.042Z,9.50
2023-03-10T05:19:54.664Z,11.30
2023-03-10T05:22:23.024Z,10.20
2023-03-10T05:24:50.186Z,10.90
2023-03-10T05:27:19.221Z,13.20
2023-03-10T05:29:46.664Z,14.00
2023-03-10T05:32:19.592Z,14.30
2023-03-10T05:34:48.112Z,14.00
2023-03-10T05:37:15.349Z,11.80
2023-03-10T05:39:43.416Z,9.40
2023-03-10T05:42:12.504Z,10.60
2023-03-10T05:44:39.775Z,10.70
2023-03-10T05:47:07.040Z,13.50
2023-03-10T05:49:36.687Z,11.20
2023-03-10T05:52:04.899Z,7.80
2023-03-10T05:54:33.976Z,11.10
2023-03-10T05:57:01.201Z,8.80
2023-03-10T05:59:28.716Z,8.70
2023-03-10T06:01:56.579Z,15.00
2023-03-10T06:04:23.620Z,8.80
2023-03-10T06:06:52.232Z,10.60
2023-03-10T06:09:19.239Z,9.50
2023-03-10T06:11:48.736Z,11.40
2023-03-10T06:14:16.193Z,11.60
2023-03-10T06:16:48.883Z,13.10
2023-03-10T06:19:20.528Z,13.30
2023-03-10T06:21:48.205Z,10.60
2023-03-10T06:24:15.471Z,10.10
2023-03-10T06:26:43.704Z,10.10
2023-03-10T06:29:10.970Z,9.50
2023-03-10T06:31:38.212Z,11.20
2023-03-10T06:34:05.443Z,9.30
2023-03-10T06:36:32.371Z,11.70
2023-03-10T06:38:59.361Z,10.60
2023-03-10T06:41:27.522Z,8.10
2023-03-10T06:43:54.624Z,10.60
2023-03-10T06:46:22.947Z,13.10
2023-03-10T06:48:50.007Z,10.80
2023-03-10T06:51:19.781Z,11.00
2023-03-10T06:53:51.330Z,9.70
2023-03-10T06:56:21.315Z,10.10
2023-03-10T06:58:49.169Z,16.10
2023-03-10T07:01:22.713Z,9.60
2023-03-10T07:03:49.832Z,15.10
2023-03-10T07:06:16.752Z,13.40
2023-03-10T07:09:04.272Z,13.10
2023-03-10T07:11:32.571Z,11.90
2023-03-10T07:13:59.617Z,10.20
2023-03-10T07:16:26.586Z,14.60
2023-03-10T07:18:53.735Z,16.60
2023-03-10T07:21:21.292Z,10.50
2023-03-10T07:23:49.186Z,20.70
2023-03-10T07:26:18.156Z,20.00
2023-03-10T07:28:46.622Z,13.90
2023-03-10T07:31:14.330Z,22.60
2023-03-10T07:33:43.000Z,17.80
2023-03-10T07:36:12.787Z,10.30
2023-03-10T07:38:40.165Z,14.40
2023-03-10T07:41:09.192Z,24.00
2023-03-10T07:43:38.868Z,14.70
2023-03-10T07:46:09.725Z,44.60
2023-03-10T07:48:36.901Z,31.60
2023-03-10T07:51:04.330Z,56.70
2023-03-10T07:53:32.621Z,55.80
2023-03-10T07:55:59.752Z,54.90
2023-03-10T07:58:27.228Z,39.90
2023-03-10T08:00:57.026Z,12.30
2023-03-10T08:03:26.033Z,16.10
2023-03-10T08:05:54.116Z,11.20
2023-03-10T08:08:22.637Z,14.60
2023-03-10T08:10:49.829Z,11.00
2023-03-10T08:13:16.948Z,13.50
2023-03-10T08:15:44.154Z,15.90
2023-03-10T08:18:11.909Z,17.00
2023-03-10T08:20:39.769Z,20.20
2023-03-10T08:23:07.562Z,14.60
2023-03-10T08:25:34.504Z,15.10
2023-03-10T08:28:01.386Z,13.10
2023-03-10T08:30:28.595Z,13.40
2023-03-10T08:32:55.901Z,12.90
2023-03-10T08:35:22.931Z,9.60
2023-03-10T08:37:55.173Z,17.30
2023-03-10T08:40:22.725Z,12.50
2023-03-10T08:42:49.785Z,17.50
2023-03-10T08:45:17.850Z,21.90
2023-03-10T08:47:44.891Z,10.50
2023-03-10T08:50:12.970Z,12.40
2023-03-10T08:52:40.839Z,16.30
2023-03-10T08:55:11.401Z,12.30
2023-03-10T08:57:39.559Z,16.90
2023-03-10T09:00:10.007Z,14.70
2023-03-10T09:02:38.060Z,21.00
2023-03-10T09:05:06.467Z,12.90
2023-03-10T09:07:40.161Z,17.00
2023-03-10T09:10:08.953Z,13.90
2023-03-10T09:12:43.174Z,12.20
2023-03-10T09:15:14.735Z,14.80
2023-03-10T09:17:45.995Z,16.40
2023-03-10T09:20:16.055Z,18.30
2023-03-10T09:22:45.992Z,12.90
2023-03-10T09:25:15.597Z,11.10
2023-03-10T09:27:46.647Z,17.00
2023-03-10T09:30:18.298Z,22.70
2023-03-10T09:32:54.968Z,19.90
2023-03-10T09:35:24.767Z,11.60
2023-03-10T09:37:54.696Z,17.60
2023-03-10T09:40:24.769Z,18.70
2023-03-10T09:43:21.510Z,14.40
2023-03-10T09:46:08.827Z,11.80
2023-03-10T09:48:55.948Z,9.80
2023-03-10T09:51:29.208Z,6.60
2023-03-10T09:54:28.113Z,10.40
2023-03-10T09:57:00.546Z,15.00
2023-03-10T09:59:40.031Z,15.90
2023-03-10T10:02:19.938Z,8.90
2023-03-10T10:05:04.369Z,11.40
2023-03-10T10:07:49.325Z,12.60
2023-03-10T10:10:32.174Z,64.40
2023-03-10T10:13:16.030Z,12.40
2023-03-10T10:16:33.430Z,18.40
2023-03-10T10:19:08.252Z,13.10
2023-03-10T10:21:52.856Z,45.70
2023-03-10T10:24:21.945Z,24.00
2023-03-10T10:26:52.158Z,13.50
2023-03-10T10:29:24.580Z,21.90
2023-03-10T10:32:11.009Z,25.30
2023-03-10T10:34:41.568Z,20.10
2023-03-10T10:37:31.108Z,18.40
2023-03-10T10:40:00.224Z,14.40
2023-03-10T10:42:32.906Z,25.70
2023-03-10T10:45:06.748Z,20.80
2023-03-10T10:47:45.659Z,23.50
2023-03-10T10:50:27.976Z,19.20
2023-03-10T10:53:19.435Z,10.20
2023-03-10T10:55:58.241Z,18.60
2023-03-10T10:58:45.383Z,14.70
2023-03-10T11:01:16.634Z,12.80
2023-03-10T11:03:50.216Z,9.90
2023-03-10T11:06:18.138Z,14.30
2023-03-10T11:08:50.369Z,9.20
2023-03-10T11:11:54.078Z,17.00
2023-03-10T11:14:26.127Z,11.10
2023-03-10T11:17:31.000Z,7.70
2023-03-10T11:20:08.222Z,8.90
2023-03-10T11:22:46.638Z,12.40
2023-03-10T11:25:42.069Z,6.20
2023-03-10T11:28:15.790Z,8.10
2023-03-10T11:30:54.901Z,13.20
2023-03-10T11:33:59.374Z,8.90
2023-03-10T11:36:56.383Z,8.00
2023-03-10T11:39:31.098Z,9.80
2023-03-10T11:42:13.784Z,9.30
2023-03-10T11:44:40.689Z,16.80
2023-03-10T11:47:14.272Z,10.70
2023-03-10T11:49:43.304Z,7.30
2023-03-10T11:52:18.315Z,10.90
2023-03-10T11:54:50.736Z,13.80
2023-03-10T11:57:21.750Z,5.60
2023-03-10T12:00:00.548Z,12.00
2023-03-10T12:02:45.422Z,11.80
2023-03-10T12:05:24.182Z,6.20
2023-03-10T12:08:00.134Z,13.70
2023-03-10T12:10:28.905Z,8.70
2023-03-10T12:12:57.887Z,8.40
2023-03-10T12:15:36.398Z,7.50
2023-03-10T12:18:07.781Z,12.20
2023-03-10T12:20:35.171Z,11.50
2023-03-10T12:23:24.303Z,10.10
2023-03-10T12:25:51.410Z,10.30
2023-03-10T12:28:26.782Z,28.30
2023-03-10T12:30:59.175Z,17.10
2023-03-10T12:33:31.685Z,17.40
2023-03-10T12:36:04.941Z,21.70
2023-03-10T12:38:53.504Z,14.90
2023-03-10T12:41:27.161Z,23.30
2023-03-10T12:43:57.660Z,14.60
2023-03-10T12:46:37.849Z,17.60
2023-03-10T12:49:16.406Z,19.20
2023-03-10T12:51:47.824Z,10.00
2023-03-10T12:54:31.450Z,6.30
2023-03-10T12:57:30.316Z,15.90
2023-03-10T13:00:24.877Z,14.00
2023-03-10T13:02:55.995Z,12.60
2023-03-10T13:05:32.326Z,5.80
2023-03-10T13:08:12.716Z,21.50
2023-03-10T13:10:45.319Z,13.60
2023-03-10T13:13:16.755Z,7.50
2023-03-10T13:15:58.276Z,11.50
2023-03-10T13:18:28.103Z,10.30
2023-03-10T13:20:55.093Z,9.20
2023-03-10T13:23:23.637Z,11.00
2023-03-10T13:25:55.877Z,12.90
2023-03-10T13:28:25.154Z,15.40
2023-03-10T13:31:05.624Z,12.80
2023-03-10T13:33:43.011Z,10.20
2023-03-10T13:36:29.973Z,12.30
2023-03-10T13:38:59.195Z,8.10
2023-03-10T13:41:26.231Z,16.20
2023-03-10T13:43:54.895Z,13.40
2023-03-10T13:46:26.599Z,13.90
2023-03-10T13:48:57.655Z,27.40
2023-03-10T13:51:32.293Z,18.60
2023-03-10T13:54:24.216Z,35.00
2023-03-10T13:57:22.473Z,13.20
2023-03-10T13:59:55.548Z,13.90
2023-03-10T14:02:35.524Z,18.60
2023-03-10T14:05:06.391Z,18.60
2023-03-10T14:07:36.117Z,18.70
2023-03-10T14:10:03.095Z,19.70
2023-03-10T14:12:46.914Z,31.50
2023-03-10T14:15:22.415Z,20.60
2023-03-10T14:18:12.872Z,16.40
2023-03-10T14:20:42.923Z,17.70
2023-03-10T14:23:19.155Z,18.40
2023-03-10T14:25:47.896Z,16.60
2023-03-10T14:28:27.805Z,14.60
2023-03-10T14:30:55.064Z,16.20
2023-03-10T14:33:22.644Z,15.20
2023-03-10T14:35:49.826Z,10.70
2023-03-10T14:38:21.632Z,18.70
2023-03-10T14:40:54.372Z,13.80
2023-03-10T14:43:24.940Z,10.90
2023-03-10T14:45:54.703Z,20.60
2023-03-10T14:48:24.908Z,11.70
2023-03-10T14:50:53.113Z,12.70
2023-03-10T14:53:24.065Z,18.80
2023-03-10T14:55:55.489Z,17.60
2023-03-10T14:58:29.748Z,16.90
2023-03-10T15:00:56.867Z,14.90
2023-03-10T15:03:23.816Z,18.30
2023-03-10T15:05:50.791Z,30.90
2023-03-10T15:08:19.205Z,24.70
2023-03-10T15:10:50.317Z,18.80
2023-03-10T15:13:23.335Z,33.40
2023-03-10T15:15:59.204Z,52.80
2023-03-10T15:18:26.674Z,39.10
2023-03-10T15:20:59.746Z,42.80
2023-03-10T15:23:27.929Z,36.00
2023-03-10T15:25:56.267Z,45.10
2023-03-10T15:28:23.370Z,41.80
2023-03-10T15:30:50.556Z,36.50
2023-03-10T15:33:18.044Z,25.60
2023-03-10T15:35:46.636Z,16.10
2023-03-10T15:38:14.351Z,29.00
2023-03-10T15:40:41.952Z,24.60
2023-03-10T15:43:09.438Z,21.40
2023-03-10T15:45:42.304Z,24.40
2023-03-10T15:48:13.219Z,25.20
2023-03-10T15:50:49.197Z,55.20
2023-03-10T15:53:20.365Z,51.50
2023-03-10T15:55:51.172Z,32.00
2023-03-10T15:58:18.386Z,28.00
2023-03-10T16:00:45.685Z,26.90
2023-03-10T16:03:16.387Z,47.90
2023-03-10T16:05:49.131Z,39.30
2023-03-10T16:08:18.585Z,44.30
2023-03-10T16:10:53.748Z,29.70
2023-03-10T16:13:21.970Z,17.90
2023-03-10T16:15:52.216Z,63.10
2023-03-10T16:18:20.162Z,113.30
2023-03-10T16:20:58.166Z,237.00
2023-03-10T16:23:28.404Z,61.00
2023-03-10T16:26:08.589Z,31.10
2023-03-10T16:28:37.983Z,27.10
2023-03-10T16:31:06.302Z,29.60
2023-03-10T16:33:41.273Z,25.30
2023-03-10T16:36:13.072Z,27.50
2023-03-10T16:38:40.304Z,28.40
2023-03-10T16:41:09.724Z,55.40
2023-03-10T16:43:38.491Z,32.70
2023-03-10T16:46:11.858Z,49.00
2023-03-10T16:48:43.963Z,45.80
2023-03-10T16:51:32.515Z,43.90
2023-03-10T16:54:03.074Z,44.60
2023-03-10T16:56:34.501Z,46.70
2023-03-10T16:59:01.426Z,62.40
2023-03-10T17:01:28.988Z,79.30
2023-03-10T17:03:56.855Z,100.60
2023-03-10T17:06:29.214Z,84.00
2023-03-10T17:08:58.288Z,95.30
2023-03-10T17:11:31.470Z,85.30
2023-03-10T17:14:06.272Z,79.60
2023-03-10T17:16:35.934Z,89.40
2023-03-10T17:19:07.232Z,78.20
2023-03-10T17:21:38.798Z,71.50
2023-03-10T17:24:07.648Z,64.80
2023-03-10T17:26:36.039Z,84.90
2023-03-10T17:29:04.368Z,78.80
2023-03-10T17:31:36.552Z,71.60
2023-03-10T17:34:06.981Z,71.00
2023-03-10T17:36:34.490Z,74.10
2023-03-10T17:39:04.280Z,74.20
2023-03-10T17:41:34.003Z,63.60
2023-03-10T17:44:04.145Z,55.10
2023-03-10T17:46:31.572Z,44.70
2023-03-10T17:49:01.678Z,40.50
2023-03-10T17:51:30.885Z,54.60
2023-03-10T17:54:00.786Z,67.30
2023-03-10T17:56:28.080Z,88.90
2023-03-10T17:58:56.738Z,80.70
2023-03-10T18:01:26.943Z,79.30
2023-03-10T18:03:59.102Z,78.00
2023-03-10T18:06:28.921Z,54.50
2023-03-10T18:08:58.182Z,62.50
2023-03-10T18:11:26.905Z,56.10
2023-03-10T18:13:57.323Z,59.60
2023-03-10T18:16:29.992Z,68.50
2023-03-10T18:18:58.274Z,71.80
2023-03-10T18:21:26.381Z,61.80
2023-03-10T18:23:56.786Z,78.60
2023-03-10T18:26:27.119Z,85.60
2023-03-10T18:28:54.576Z,80.60
2023-03-10T18:31:26.542Z,86.20
2023-03-10T18:34:00.235Z,81.70
2023-03-10T18:36:29.601Z,86.70
2023-03-10T18:39:01.853Z,99.30
2023-03-10T18:41:31.386Z,78.00
2023-03-10T18:43:59.518Z,68.60
2023-03-10T18:46:26.955Z,48.10
2023-03-10T18:48:55.451Z,41.20
2023-03-10T18:51:25.374Z,48.20
2023-03-10T18:53:53.421Z,60.70
2023-03-10T18:56:28.494Z,55.50
2023-03-10T18:58:55.855Z,53.70
2023-03-10T19:01:23.050Z,47.10
2023-03-10T19:03:50.326Z,44.40
2023-03-10T19:06:17.416Z,47.10
2023-03-10T19:08:44.370Z,47.30
2023-03-10T19:11:11.769Z,50.50
2023-03-10T19:13:40.092Z,60.00
2023-03-10T19:16:09.262Z,47.60
2023-03-10T19:18:36.609Z,50.80
2023-03-10T19:21:04.577Z,52.50
2023-03-10T19:23:34.408Z,60.70
2023-03-10T19:26:02.432Z,53.50
2023-03-10T19:28:29.557Z,69.90
2023-03-10T19:30:56.632Z,56.00
2023-03-10T19:33:24.947Z,45.50
2023-03-10T19:36:12.706Z,45.20
2023-03-10T19:38:43.137Z,41.90
2023-03-10T19:41:13.143Z,37.70
2023-03-10T19:43:48.405Z,24.50
2023-03-10T19:46:16.330Z,36.50
2023-03-10T19:48:44.126Z,27.60
2023-03-10T19:51:20.723Z,33.10
2023-03-10T19:53:49.435Z,34.20
2023-03-10T19:56:18.449Z,41.40
2023-03-10T19:58:47.566Z,32.30
2023-03-10T20:01:23.088Z,27.50
2023-03-10T20:06:17.840Z,16.30
2023-03-10T20:08:45.718Z,30.40
2023-03-10T20:11:15.590Z,29.40
2023-03-10T20:13:45.215Z,21.40
2023-03-10T20:16:15.085Z,20.30
2023-03-10T20:18:45.817Z,28.00
2023-03-10T20:21:12.918Z,37.90
2023-03-10T20:23:39.836Z,28.70
2023-03-10T20:26:10.310Z,34.80
2023-03-10T20:28:39.143Z,31.70
2023-03-10T20:31:08.393Z,32.90
2023-03-10T20:33:36.070Z,42.30
2023-03-10T20:36:09.426Z,25.70
2023-03-10T20:38:45.340Z,40.30
2023-03-10T20:41:14.698Z,29.60
2023-03-10T20:43:42.646Z,28.80
2023-03-10T20:46:10.695Z,30.70
2023-03-10T20:48:38.695Z,35.90
2023-03-10T20:51:06.532Z,32.20
2023-03-10T20:53:40.022Z,25.30
2023-03-10T20:56:10.229Z,45.40
2023-03-10T20:58:37.748Z,39.40
2023-03-10T21:01:04.942Z,34.20
2023-03-10T21:03:32.367Z,34.70
2023-03-10T21:06:01.650Z,32.90
2023-03-10T21:08:28.861Z,29.30
2023-03-10T21:10:59.042Z,35.30
2023-03-10T21:13:27.266Z,33.00
2023-03-10T21:15:54.323Z,26.60
2023-03-10T21:18:22.194Z,33.00
2023-03-10T21:20:49.150Z,33.20
2023-03-10T21:23:16.061Z,31.20
2023-03-10T21:25:44.620Z,27.80
2023-03-10T21:28:12.423Z,28.90
2023-03-10T21:30:39.630Z,30.70
2023-03-10T21:33:07.539Z,18.80
2023-03-10T21:35:38.039Z,27.10
2023-03-10T21:38:04.993Z,25.00
2023-03-10T21:40:32.784Z,26.90
2023-03-10T21:43:02.573Z,27.50
2023-03-10T21:45:33.615Z,17.60
2023-03-10T21:48:00.641Z,21.30
2023-03-10T21:50:27.519Z,26.30
2023-03-10T21:52:55.741Z,27.70
2023-03-10T21:55:25.068Z,28.00
2023-03-10T21:57:52.424Z,25.30
2023-03-10T22:00:22.477Z,26.10
2023-03-10T22:02:50.639Z,24.70
2023-03-10T22:05:19.116Z,21.80
2023-03-10T22:07:53.048Z,21.80
2023-03-10T22:10:20.196Z,28.60
2023-03-10T22:12:48.196Z,29.00
2023-03-10T22:15:20.233Z,30.20
2023-03-10T22:17:48.431Z,29.40
2023-03-10T22:20:23.701Z,33.90
2023-03-10T22:22:51.388Z,30.60
2023-03-10T22:25:19.743Z,32.10
2023-03-10T22:27:54.782Z,25.70
2023-03-10T22:30:25.114Z,33.90
2023-03-10T22:32:53.452Z,21.60
2023-03-10T22:35:21.356Z,20.70
2023-03-10T22:37:49.373Z,23.00
2023-03-10T22:40:25.010Z,26.80
2023-03-10T22:42:55.154Z,29.90
2023-03-10T22:45:25.839Z,27.30
2023-03-10T22:47:57.165Z,55.20
2023-03-10T22:50:29.383Z,68.90
2023-03-10T22:52:58.257Z,38.40
2023-03-10T22:55:25.542Z,24.80
2023-03-10T22:57:53.409Z,26.50
2023-03-10T23:00:22.252Z,26.10
2023-03-10T23:02:51.778Z,26.60
2023-03-10T23:05:19.977Z,30.60
2023-03-10T23:07:49.560Z,33.20
2023-03-10T23:10:24.401Z,25.20
2023-03-10T23:12:53.433Z,24.00
2023-03-10T23:15:25.841Z,23.50
2023-03-10T23:17:55.236Z,26.00
2023-03-10T23:20:26.721Z,26.40
2023-03-10T23:22:57.438Z,25.40
2023-03-10T23:25:34.238Z,21.40
2023-03-10T23:28:02.692Z,24.50
2023-03-10T23:30:30.186Z,19.10
2023-03-10T23:32:57.512Z,21.80
2023-03-10T23:35:28.495Z,19.50
2023-03-10T23:37:56.548Z,19.50
2023-03-10T23:40:26.515Z,21.30
2023-03-10T23:42:56.510Z,16.60
2023-03-10T23:45:27.588Z,26.10
2023-03-10T23:47:57.892Z,19.70
2023-03-10T23:50:25.504Z,20.70
2023-03-10T23:52:53.184Z,23.10
2023-03-10T23:55:24.510Z,19.30
2023-03-10T23:57:52.734Z,24.70
